Time;durP1;ratioP1;P1;durP2;ratioP2;P2;SDS_P1;SDS_P2;PMS_P1;PMS_P2;Temp;Humidity;BMP_temperature;BMP_pressure;BME280_temperature;BME280_humidity;BME280_pressure;Samples;Min_cycle;Max_cycle;Signal;HPM_P1;HPM_P2
2021/03/08 00:01:21;;;;;;;52.42;24.25;;;5.10;99.90;;;;;;5031283;28;20072;-71
2021/03/08 00:03:47;;;;;;;51.17;23.50;;;5.10;99.90;;;;;;5020713;28;20077;-71
2021/03/08 00:06:12;;;;;;;54.33;28.02;;;5.10;99.90;;;;;;5021161;28;20547;-71
2021/03/08 00:08:38;;;;;;;54.65;25.75;;;5.20;99.90;;;;;;5033161;28;20065;-71
2021/03/08 00:11:03;;;;;;;57.22;25.95;;;5.20;99.90;;;;;;5035978;28;20022;-71
2021/03/08 00:13:29;;;;;;;53.25;26.58;;;5.20;99.90;;;;;;5019829;28;20121;-71
2021/03/08 00:15:55;;;;;;;58.13;27.80;;;5.20;99.90;;;;;;5036190;28;20017;-71
2021/03/08 00:18:20;;;;;;;56.28;26.98;;;5.20;99.90;;;;;;5029229;28;20037;-70
2021/03/08 00:20:46;;;;;;;58.30;27.45;;;5.20;99.90;;;;;;5026627;28;20022;-70
2021/03/08 00:23:12;;;;;;;55.15;27.42;;;5.20;99.90;;;;;;5032015;28;20025;-71
2021/03/08 00:25:38;;;;;;;55.67;27.02;;;5.30;99.90;;;;;;5024576;28;20075;-71
2021/03/08 00:28:03;;;;;;;56.78;27.15;;;5.30;99.90;;;;;;5019930;28;20039;-71
2021/03/08 00:30:29;;;;;;;59.63;27.55;;;5.30;99.90;;;;;;5025797;28;20482;-70
2021/03/08 00:32:56;;;;;;;58.55;29.10;;;5.40;99.90;;;;;;5023338;28;20033;-70
2021/03/08 00:35:21;;;;;;;60.33;27.65;;;5.30;99.90;;;;;;5019803;28;20486;-71
2021/03/08 00:37:47;;;;;;;57.80;27.35;;;5.30;99.90;;;;;;5023161;28;20049;-71
2021/03/08 00:40:19;;;;;;;60.40;29.02;;;5.30;99.90;;;;;;5020002;28;20032;-71
2021/03/08 00:42:45;;;;;;;63.95;29.67;;;5.40;99.90;;;;;;5023874;28;20151;-70
2021/03/08 00:45:13;;;;;;;59.50;28.98;;;5.40;99.90;;;;;;5021959;28;20216;-72
2021/03/08 00:47:39;;;;;;;60.70;29.55;;;5.40;99.90;;;;;;5020002;28;20102;-71
2021/03/08 00:50:12;;;;;;;58.97;28.58;;;5.30;99.90;;;;;;5022841;28;20482;-72
2021/03/08 00:52:38;;;;;;;59.47;28.50;;;5.40;99.90;;;;;;5021304;28;20026;-72
2021/03/08 00:55:04;;;;;;;58.53;28.42;;;5.40;99.90;;;;;;5022456;28;20032;-71
2021/03/08 00:57:30;;;;;;;63.75;29.02;;;5.30;99.90;;;;;;5020682;28;20041;-72
2021/03/08 00:59:56;;;;;;;59.95;29.33;;;5.40;99.90;;;;;;5026412;28;20475;-71
2021/03/08 01:02:22;;;;;;;65.88;30.05;;;5.40;99.90;;;;;;5026976;28;20104;-72
2021/03/08 01:04:47;;;;;;;58.85;27.27;;;5.30;99.90;;;;;;5027937;28;20080;-72
2021/03/08 01:07:13;;;;;;;60.95;29.55;;;5.40;99.90;;;;;;5023669;28;20067;-73
2021/03/08 01:09:39;;;;;;;63.60;30.15;;;5.30;99.90;;;;;;5018332;28;20040;-71
2021/03/08 01:12:06;;;;;;;63.35;29.90;;;5.30;99.90;;;;;;5025155;28;20490;-71
2021/03/08 01:14:32;;;;;;;61.55;29.58;;;5.30;99.90;;;;;;5023267;28;20029;-71
2021/03/08 01:16:58;;;;;;;63.20;28.80;;;5.30;99.90;;;;;;5020426;28;20028;-71
2021/03/08 01:19:23;;;;;;;62.25;29.10;;;5.20;99.90;;;;;;5024668;28;20569;-71
2021/03/08 01:21:49;;;;;;;64.70;31.08;;;5.30;99.90;;;;;;5027542;28;20040;-70
2021/03/08 01:24:15;;;;;;;65.65;30.90;;;5.20;99.90;;;;;;5021547;28;20038;-71
2021/03/08 01:26:41;;;;;;;63.67;29.52;;;5.20;99.90;;;;;;5024206;28;20040;-72
2021/03/08 01:29:06;;;;;;;68.63;29.63;;;5.20;99.90;;;;;;5021000;28;20436;-70
2021/03/08 01:31:32;;;;;;;65.82;30.90;;;5.20;99.90;;;;;;5020280;28;20112;-70
2021/03/08 01:33:58;;;;;;;63.03;28.35;;;5.20;99.90;;;;;;5019119;28;20104;-71
2021/03/08 01:36:23;;;;;;;62.65;28.92;;;5.20;99.90;;;;;;5022461;28;20638;-71
2021/03/08 01:38:49;;;;;;;67.57;30.33;;;5.20;99.90;;;;;;5019860;28;20544;-71
2021/03/08 01:41:15;;;;;;;68.15;31.85;;;5.20;99.90;;;;;;5018548;28;20022;-71
2021/03/08 01:43:41;;;;;;;69.53;31.50;;;5.10;99.90;;;;;;5017275;28;20022;-71
2021/03/08 01:46:07;;;;;;;63.97;30.85;;;5.10;99.90;;;;;;5019058;28;20026;-71
2021/03/08 01:48:33;;;;;;;69.07;31.42;;;5.10;99.90;;;;;;5019707;28;20037;-70
2021/03/08 01:50:59;;;;;;;65.07;29.60;;;5.10;99.90;;;;;;5021016;28;20105;-71
2021/03/08 01:53:28;;;;;;;67.45;30.35;;;5.00;99.90;;;;;;5017335;28;20172;-71
2021/03/08 01:55:55;;;;;;;68.60;31.50;;;5.00;99.90;;;;;;5018683;28;20044;-71
2021/03/08 01:58:22;;;;;;;61.40;30.42;;;4.90;99.90;;;;;;5031332;28;20046;-70
2021/03/08 02:00:48;;;;;;;67.82;31.90;;;4.90;99.90;;;;;;5022477;28;20029;-71
2021/03/08 02:03:14;;;;;;;65.18;31.77;;;4.90;99.90;;;;;;5015117;28;20025;-71
2021/03/08 02:05:43;;;;;;;65.10;31.30;;;5.00;99.90;;;;;;5022688;28;20486;-71
2021/03/08 02:08:11;;;;;;;67.38;30.80;;;5.00;99.90;;;;;;5050174;28;20505;-71
2021/03/08 02:10:39;;;;;;;65.95;30.70;;;4.90;99.90;;;;;;5020689;28;20144;-71
2021/03/08 02:13:29;;;;;;;67.43;31.75;;;4.90;99.90;;;;;;5047193;28;20026;-71
2021/03/08 02:15:55;;;;;;;68.57;31.27;;;4.90;99.90;;;;;;5023650;28;20051;-71
2021/03/08 02:18:29;;;;;;;69.78;31.30;;;4.90;99.90;;;;;;5025688;28;20478;-71
2021/03/08 02:21:07;;;;;;;72.07;33.25;;;4.90;99.90;;;;;;5013199;28;20034;-72
2021/03/08 02:24:14;;;;;;;70.88;31.15;;;4.90;99.90;;;;;;5025682;28;20028;-71
2021/03/08 02:26:50;;;;;;;70.90;32.53;;;4.90;99.90;;;;;;5019548;28;20029;-72
2021/03/08 02:29:46;;;;;;;68.32;32.38;;;4.90;99.90;;;;;;5017701;28;20034;-71
2021/03/08 02:32:14;;;;;;;62.22;30.35;;;4.90;99.90;;;;;;5027562;28;20056;-71
2021/03/08 02:35:06;;;;;;;72.22;33.22;;;4.90;99.90;;;;;;5023063;28;20088;-71
2021/03/08 02:37:37;;;;;;;67.53;30.08;;;4.90;99.90;;;;;;5021237;28;20109;-72
2021/03/08 02:40:11;;;;;;;74.60;32.63;;;4.90;99.90;;;;;;5017752;28;20029;-71
2021/03/08 02:42:40;;;;;;;69.38;33.05;;;4.90;99.90;;;;;;5018660;28;20010;-71
2021/03/08 02:45:08;;;;;;;72.20;34.13;;;4.90;99.90;;;;;;5051939;28;20029;-71
2021/03/08 02:47:41;;;;;;;72.90;33.75;;;4.90;99.90;;;;;;5024091;28;20021;-70
2021/03/08 02:50:08;;;;;;;76.50;36.53;;;4.90;99.90;;;;;;5030811;28;20060;-71
2021/03/08 02:52:36;;;;;;;72.80;34.70;;;4.80;99.90;;;;;;5021725;28;20026;-72
2021/03/08 02:55:04;;;;;;;74.85;35.67;;;4.80;99.90;;;;;;5022244;28;20045;-71
2021/03/08 02:57:38;;;;;;;74.85;34.55;;;4.90;99.90;;;;;;5020716;28;20391;-72
2021/03/08 03:00:13;;;;;;;74.90;32.85;;;4.80;99.90;;;;;;5022039;28;20116;-71
2021/03/08 03:02:40;;;;;;;72.07;33.78;;;4.80;99.90;;;;;;5022567;28;20026;-71
2021/03/08 03:05:10;;;;;;;72.95;33.60;;;4.80;99.90;;;;;;5022088;28;20104;-71
2021/03/08 03:07:40;;;;;;;70.40;32.70;;;4.80;99.90;;;;;;5020562;28;20026;-71
2021/03/08 03:10:07;;;;;;;77.60;36.05;;;4.80;99.90;;;;;;5024640;28;20486;-71
2021/03/08 03:12:35;;;;;;;88.40;39.05;;;4.80;99.90;;;;;;5023585;28;20034;-71
2021/03/08 03:15:02;;;;;;;75.80;32.70;;;4.80;99.90;;;;;;5022432;28;20022;-71
2021/03/08 03:17:29;;;;;;;77.32;35.20;;;4.70;99.90;;;;;;5022162;28;20443;-71
2021/03/08 03:19:58;;;;;;;81.40;36.55;;;4.80;99.90;;;;;;5020562;28;20116;-70
2021/03/08 03:22:26;;;;;;;86.93;37.05;;;4.70;99.90;;;;;;5019888;28;20064;-70
2021/03/08 03:24:59;;;;;;;76.05;36.25;;;4.80;99.90;;;;;;5031273;28;20025;-71
2021/03/08 03:27:25;;;;;;;85.63;38.00;;;4.80;99.90;;;;;;5023813;28;20022;-70
2021/03/08 03:29:53;;;;;;;78.68;36.83;;;4.70;99.90;;;;;;5016101;28;20550;-71
2021/03/08 03:32:23;;;;;;;78.47;35.83;;;4.70;99.90;;;;;;5022063;28;20386;-71
2021/03/08 03:34:49;;;;;;;80.05;35.65;;;4.70;99.90;;;;;;5022966;28;20026;-71
2021/03/08 03:37:22;;;;;;;87.53;38.20;;;4.80;99.90;;;;;;5019560;28;20093;-71
2021/03/08 03:39:48;;;;;;;74.05;34.47;;;4.70;99.90;;;;;;5021089;28;20030;-70
2021/03/08 03:42:18;;;;;;;85.10;37.35;;;4.70;99.90;;;;;;5020576;28;20025;-71
2021/03/08 03:44:43;;;;;;;78.97;36.60;;;4.80;99.90;;;;;;5021211;28;20552;-70
2021/03/08 03:47:14;;;;;;;82.93;38.35;;;4.80;99.90;;;;;;5019130;28;20028;-71
2021/03/08 03:49:40;;;;;;;87.53;37.47;;;4.70;99.90;;;;;;5022770;28;20036;-70
2021/03/08 03:52:07;;;;;;;81.75;38.30;;;4.70;99.90;;;;;;5023756;28;20022;-71
2021/03/08 03:54:33;;;;;;;84.45;39.95;;;4.70;99.90;;;;;;5021031;28;20029;-71
2021/03/08 03:57:04;;;;;;;82.22;36.42;;;4.70;99.90;;;;;;5023870;28;20505;-71
2021/03/08 03:59:43;;;;;;;82.88;36.90;;;4.60;99.90;;;;;;5021596;28;20042;-70
2021/03/08 04:02:22;;;;;;;80.68;37.90;;;4.50;99.90;;;;;;5021053;28;20030;-70
2021/03/08 04:04:54;;;;;;;78.32;36.85;;;4.60;99.90;;;;;;5029291;28;20057;-70
2021/03/08 04:07:20;;;;;;;80.68;38.25;;;4.60;99.90;;;;;;5022217;28;20025;-70
2021/03/08 04:09:55;;;;;;;86.47;37.10;;;4.50;99.90;;;;;;5021621;28;20403;-70
2021/03/08 04:12:32;;;;;;;80.28;34.92;;;4.50;99.90;;;;;;5021959;28;20699;-70
2021/03/08 04:15:04;;;;;;;83.13;37.00;;;4.40;99.90;;;;;;5021239;28;20038;-71
2021/03/08 04:17:34;;;;;;;81.37;36.17;;;4.40;99.90;;;;;;5020755;28;20026;-70
2021/03/08 04:20:01;;;;;;;88.30;39.20;;;4.40;99.90;;;;;;5020766;28;20299;-70
2021/03/08 04:22:29;;;;;;;80.78;36.95;;;4.40;99.90;;;;;;5023656;28;20100;-70
2021/03/08 04:24:58;;;;;;;86.53;37.97;;;4.30;99.90;;;;;;5025981;28;20052;-70
2021/03/08 04:27:24;;;;;;;96.10;41.33;;;4.40;99.90;;;;;;5024506;28;20037;-71
2021/03/08 04:29:50;;;;;;;83.75;36.90;;;4.30;99.90;;;;;;5021396;28;20045;-71
2021/03/08 04:32:17;;;;;;;84.15;37.80;;;4.30;99.90;;;;;;5024185;28;20374;-70
2021/03/08 04:34:44;;;;;;;87.25;37.50;;;4.30;99.90;;;;;;5022908;28;20059;-71
2021/03/08 04:37:13;;;;;;;84.55;37.67;;;4.30;99.90;;;;;;5021092;28;20022;-70
2021/03/08 04:39:39;;;;;;;87.70;37.33;;;4.30;99.90;;;;;;5027178;28;20044;-70
2021/03/08 04:42:10;;;;;;;86.05;36.95;;;4.20;99.90;;;;;;5025618;28;20034;-71
2021/03/08 04:44:40;;;;;;;81.72;37.67;;;4.30;99.90;;;;;;5021308;28;20022;-71
2021/03/08 04:47:07;;;;;;;81.78;37.75;;;4.30;99.90;;;;;;5021155;28;20474;-71
2021/03/08 04:49:35;;;;;;;87.68;39.78;;;4.10;99.90;;;;;;5022067;28;20826;-71
2021/03/08 04:52:01;;;;;;;90.80;40.22;;;4.10;99.90;;;;;;5022578;28;20100;-71
2021/03/08 04:54:27;;;;;;;88.28;39.65;;;4.00;99.90;;;;;;5017692;28;20022;-70
2021/03/08 04:56:55;;;;;;;85.35;37.50;;;4.00;99.90;;;;;;5018465;28;20036;-70
2021/03/08 04:59:23;;;;;;;91.75;40.30;;;4.00;99.90;;;;;;5014737;28;20043;-70
2021/03/08 05:01:49;;;;;;;96.82;38.67;;;4.00;99.90;;;;;;5020055;28;20022;-71
2021/03/08 05:04:17;;;;;;;93.78;40.25;;;3.90;99.90;;;;;;5015673;28;20026;-70
2021/03/08 05:06:44;;;;;;;86.43;36.78;;;3.90;99.90;;;;;;5019495;28;20543;-70
2021/03/08 05:09:12;;;;;;;86.13;38.85;;;3.80;99.90;;;;;;5023485;28;20378;-70
2021/03/08 05:11:39;;;;;;;86.75;37.28;;;3.80;99.90;;;;;;5023988;28;20032;-70
2021/03/08 05:14:08;;;;;;;89.93;38.70;;;3.80;99.90;;;;;;5022276;28;20030;-70
2021/03/08 05:16:39;;;;;;;86.65;36.50;;;3.80;99.90;;;;;;5019824;28;20021;-69
2021/03/08 05:19:05;;;;;;;83.93;37.03;;;3.70;99.90;;;;;;5019391;28;20048;-70
2021/03/08 05:21:34;;;;;;;93.22;38.20;;;3.60;99.90;;;;;;5019747;28;20024;-70
2021/03/08 05:24:00;;;;;;;88.25;37.40;;;3.50;99.90;;;;;;5019338;28;20037;-70
2021/03/08 05:26:27;;;;;;;85.05;36.80;;;3.50;99.90;;;;;;5023041;28;20022;-70
2021/03/08 05:28:54;;;;;;;88.15;38.15;;;3.50;99.90;;;;;;5017504;28;20030;-70
2021/03/08 05:31:21;;;;;;;89.60;37.90;;;3.50;99.90;;;;;;5021249;28;20045;-69
2021/03/08 05:33:51;;;;;;;84.07;36.33;;;3.40;99.90;;;;;;5036042;28;20029;-69
2021/03/08 05:36:17;;;;;;;90.93;37.38;;;3.40;99.90;;;;;;5020060;28;20025;-69
2021/03/08 05:38:45;;;;;;;89.63;36.67;;;3.50;99.90;;;;;;5022167;28;20033;-69
2021/03/08 05:41:32;;;;;;;87.07;38.05;;;3.50;99.90;;;;;;5022335;28;20072;-70
2021/03/08 05:44:03;;;;;;;85.78;36.28;;;3.40;99.90;;;;;;5023287;28;20017;-70
2021/03/08 05:46:59;;;;;;;87.15;37.05;;;3.40;99.90;;;;;;5024752;28;20540;-70
2021/03/08 05:49:49;;;;;;;78.82;34.00;;;3.50;99.90;;;;;;5018584;28;20026;-69
2021/03/08 05:52:33;;;;;;;84.55;36.85;;;3.50;99.90;;;;;;5022927;28;20553;-69
2021/03/08 05:55:14;;;;;;;93.13;37.90;;;3.50;99.90;;;;;;5026385;28;20026;-69
2021/03/08 05:57:49;;;;;;;85.88;37.42;;;3.50;99.90;;;;;;5021390;28;20594;-70
2021/03/08 06:00:45;;;;;;;95.13;39.15;;;3.40;99.90;;;;;;5020197;28;20033;-69
2021/03/08 06:03:22;;;;;;;88.72;36.75;;;3.40;99.90;;;;;;5019732;28;20430;-69
2021/03/08 06:06:19;;;;;;;87.65;37.78;;;3.50;99.90;;;;;;5021915;28;20028;-69
2021/03/08 06:09:22;;;;;;;86.90;37.33;;;3.40;99.90;;;;;;5018670;28;20127;-70
2021/03/08 06:12:08;;;;;;;93.55;38.60;;;3.30;99.90;;;;;;5017889;28;20021;-71
2021/03/08 06:14:45;;;;;;;88.25;37.58;;;3.40;99.90;;;;;;5011699;28;20108;-70
2021/03/08 06:17:12;;;;;;;89.25;36.33;;;3.50;99.90;;;;;;5018772;28;20021;-71
2021/03/08 06:19:39;;;;;;;88.00;35.03;;;3.50;99.90;;;;;;5019293;28;20474;-72
2021/03/08 06:22:13;;;;;;;80.95;36.00;;;3.50;99.90;;;;;;5021788;28;20029;-70
2021/03/08 06:24:44;;;;;;;88.40;34.95;;;3.40;99.90;;;;;;5019737;28;20475;-69
2021/03/08 06:27:11;;;;;;;90.20;36.65;;;3.50;99.90;;;;;;5021361;28;20026;-70
2021/03/08 06:29:38;;;;;;;92.60;36.88;;;3.50;99.90;;;;;;5024860;28;20024;-70
2021/03/08 06:32:06;;;;;;;86.03;38.15;;;3.40;99.90;;;;;;5026107;28;20021;-70
2021/03/08 06:34:32;;;;;;;90.43;39.53;;;3.50;99.90;;;;;;5024364;28;20106;-70
2021/03/08 06:37:09;;;;;;;96.75;41.65;;;3.50;99.90;;;;;;5025337;28;20494;-70
2021/03/08 06:39:46;;;;;;;82.40;36.08;;;3.50;99.90;;;;;;5021102;28;20032;-70
2021/03/08 06:42:14;;;;;;;86.78;35.88;;;3.50;99.90;;;;;;5029817;28;20141;-70
2021/03/08 06:44:40;;;;;;;80.68;33.60;;;3.60;99.90;;;;;;5022636;28;20108;-70
2021/03/08 06:47:07;;;;;;;84.50;36.88;;;3.60;99.90;;;;;;5022224;28;20120;-70
2021/03/08 06:49:34;;;;;;;88.80;38.00;;;3.70;99.90;;;;;;5019324;28;20013;-71
2021/03/08 06:52:10;;;;;;;82.00;37.00;;;3.60;99.90;;;;;;5022160;28;20084;-70
2021/03/08 06:54:39;;;;;;;85.65;36.08;;;3.60;99.90;;;;;;5025984;28;20465;-71
2021/03/08 06:57:28;;;;;;;87.95;36.63;;;3.60;99.90;;;;;;5021715;28;20013;-70
2021/03/08 06:59:59;;;;;;;87.05;37.80;;;3.60;99.90;;;;;;5021828;28;20049;-71
2021/03/08 07:02:39;;;;;;;85.93;37.05;;;3.70;99.90;;;;;;5021684;28;20583;-70
2021/03/08 07:05:09;;;;;;;89.82;38.30;;;3.70;99.90;;;;;;5026344;28;20026;-70
2021/03/08 07:07:49;;;;;;;84.32;37.50;;;3.80;99.90;;;;;;5027105;28;20056;-71
2021/03/08 07:10:17;;;;;;;90.28;39.22;;;3.80;99.90;;;;;;5021362;28;20037;-70
2021/03/08 07:12:50;;;;;;;104.43;40.38;;;3.90;99.90;;;;;;5021835;28;20451;-70
2021/03/08 07:15:16;;;;;;;89.22;40.00;;;3.90;99.90;;;;;;5025934;28;20466;-71
2021/03/08 07:17:41;;;;;;;92.70;40.22;;;4.00;99.90;;;;;;5017102;28;20022;-71
2021/03/08 07:20:16;;;;;;;102.95;44.05;;;4.00;99.90;;;;;;5018493;28;20029;-71
2021/03/08 07:22:55;;;;;;;101.07;42.55;;;4.10;99.90;;;;;;5020511;28;20048;-70
2021/03/08 07:25:25;;;;;;;97.60;42.95;;;4.20;99.90;;;;;;5026509;28;20037;-74
2021/03/08 07:27:53;;;;;;;94.60;41.65;;;4.30;99.90;;;;;;5022223;28;20029;-70
2021/03/08 07:30:36;;;;;;;98.80;42.78;;;4.30;99.90;;;;;;5025516;28;20013;-70
2021/03/08 07:33:04;;;;;;;103.28;43.42;;;4.40;99.90;;;;;;5029858;28;20021;-73
2021/03/08 07:35:48;;;;;;;99.95;45.28;;;4.50;99.90;;;;;;5028941;28;20102;-70
2021/03/08 07:38:28;;;;;;;102.72;41.58;;;4.50;99.90;;;;;;5022046;28;20111;-70
2021/03/08 07:41:14;;;;;;;97.25;43.17;;;4.60;99.90;;;;;;5008231;28;21027;-70
2021/03/08 07:43:41;;;;;;;102.13;45.92;;;4.70;99.90;;;;;;5016768;28;20054;-70
2021/03/08 07:46:26;;;;;;;101.80;44.42;;;4.70;99.90;;;;;;5028531;28;20022;-70
2021/03/08 07:48:52;;;;;;;99.40;42.70;;;4.80;99.90;;;;;;5030635;28;20026;-72
2021/03/08 07:51:17;;;;;;;97.22;43.90;;;4.80;99.90;;;;;;5028549;28;20030;-73
2021/03/08 07:53:43;;;;;;;93.43;43.53;;;4.90;99.90;;;;;;5030932;28;20397;-71
2021/03/08 07:56:09;;;;;;;101.70;46.10;;;5.00;99.90;;;;;;5026756;28;20033;-70
2021/03/08 07:58:37;;;;;;;105.70;48.10;;;5.10;99.90;;;;;;5027503;28;20045;-71
2021/03/08 08:01:06;;;;;;;101.53;46.22;;;5.10;99.90;;;;;;5031350;28;20033;-71
2021/03/08 08:03:33;;;;;;;100.97;44.17;;;5.20;99.90;;;;;;5023270;28;20028;-72
2021/03/08 08:06:07;;;;;;;99.40;44.03;;;5.20;99.90;;;;;;5027749;28;20021;-71
2021/03/08 08:08:35;;;;;;;97.03;42.25;;;5.30;99.90;;;;;;5026643;28;20030;-72
2021/03/08 08:11:03;;;;;;;99.75;43.85;;;5.40;99.90;;;;;;5033451;28;20474;-71
2021/03/08 08:13:53;;;;;;;97.80;43.03;;;5.40;99.90;;;;;;5030157;28;20029;-71
2021/03/08 08:16:23;;;;;;;93.45;43.15;;;5.40;99.90;;;;;;5031000;28;20107;-72
2021/03/08 08:18:53;;;;;;;91.07;41.53;;;5.40;99.90;;;;;;5030570;28;20554;-73
2021/03/08 08:21:20;;;;;;;99.00;42.28;;;5.60;99.90;;;;;;5021952;28;20022;-74
2021/03/08 08:23:55;;;;;;;91.03;41.65;;;5.60;99.90;;;;;;5021587;28;20475;-74
2021/03/08 08:26:22;;;;;;;88.50;40.88;;;5.70;99.90;;;;;;5031403;28;20022;-74
2021/03/08 08:28:49;;;;;;;92.55;42.30;;;5.70;99.90;;;;;;5022622;28;20038;-74
2021/03/08 08:31:15;;;;;;;89.25;41.72;;;5.80;99.90;;;;;;5023739;28;20088;-73
2021/03/08 08:33:41;;;;;;;86.18;40.35;;;5.90;99.90;;;;;;5023057;28;20062;-73
2021/03/08 08:36:11;;;;;;;97.32;42.50;;;6.10;99.90;;;;;;5026459;28;20032;-72
2021/03/08 08:38:38;;;;;;;102.35;44.63;;;6.10;99.90;;;;;;5028717;28;20037;-73
2021/03/08 08:41:17;;;;;;;87.57;39.72;;;6.30;99.90;;;;;;5027944;28;20064;-74
2021/03/08 08:43:42;;;;;;;85.40;38.92;;;6.40;99.90;;;;;;5029204;28;20028;-74
2021/03/08 08:46:26;;;;;;;80.65;38.92;;;6.50;99.90;;;;;;5033144;28;20017;-74
2021/03/08 08:49:15;;;;;;;86.32;40.13;;;6.50;99.90;;;;;;5033864;28;20461;-72
2021/03/08 08:51:55;;;;;;;84.03;38.78;;;6.60;99.90;;;;;;5026667;28;20100;-71
2021/03/08 08:54:27;;;;;;;82.95;38.67;;;6.80;99.90;;;;;;5026514;28;20504;-73
2021/03/08 08:57:13;;;;;;;76.13;37.33;;;6.90;99.90;;;;;;5020288;28;20499;-74
2021/03/08 08:59:48;;;;;;;76.13;37.25;;;7.00;99.90;;;;;;5025727;28;20486;-73
2021/03/08 09:02:27;;;;;;;80.57;39.20;;;7.10;99.90;;;;;;5027265;28;20037;-74
2021/03/08 09:04:53;;;;;;;78.40;38.75;;;7.20;99.90;;;;;;5016521;28;20018;-73
2021/03/08 09:07:19;;;;;;;83.35;39.22;;;7.20;99.90;;;;;;5019571;28;20420;-73
2021/03/08 09:09:49;;;;;;;80.30;38.80;;;7.30;99.90;;;;;;5025400;28;20440;-72
2021/03/08 09:12:41;;;;;;;80.05;37.65;;;7.40;99.90;;;;;;5025346;28;20025;-71
2021/03/08 09:15:17;;;;;;;79.43;37.97;;;7.50;99.90;;;;;;5016639;28;20527;-74
2021/03/08 09:17:51;;;;;;;75.88;38.03;;;7.60;99.90;;;;;;5034867;28;20065;-75
2021/03/08 09:20:29;;;;;;;78.90;39.65;;;7.60;99.90;;;;;;5030404;28;20041;-73
2021/03/08 09:23:01;;;;;;;75.05;38.45;;;7.60;99.90;;;;;;5024164;28;20033;-72
2021/03/08 09:25:31;;;;;;;72.88;37.38;;;7.60;99.90;;;;;;5028155;28;20128;-72
2021/03/08 09:27:59;;;;;;;74.43;35.30;;;7.60;99.90;;;;;;5025044;28;20076;-73
2021/03/08 09:30:37;;;;;;;64.10;33.95;;;7.70;99.90;;;;;;5022522;28;20036;-71
2021/03/08 09:33:17;;;;;;;65.03;34.65;;;7.70;99.90;;;;;;5020428;28;20045;-71
2021/03/08 09:35:50;;;;;;;68.90;37.03;;;7.80;99.90;;;;;;5032207;28;20021;-71
2021/03/08 09:38:20;;;;;;;;;;;7.90;99.90;;;;;;5020197;28;20033;-71
2021/03/08 09:40:51;;;;;;;67.75;33.42;;;8.10;99.90;;;;;;5027959;28;19913;-74
2021/03/08 09:43:28;;;;;;;71.30;34.83;;;8.30;99.90;;;;;;5022787;28;20030;-71
2021/03/08 09:46:18;;;;;;;70.32;35.90;;;8.50;99.90;;;;;;5020355;28;20024;-72
2021/03/08 09:48:52;;;;;;;66.80;32.95;;;8.50;99.90;;;;;;5022423;28;20044;-73
2021/03/08 09:51:19;;;;;;;71.55;36.08;;;8.60;99.90;;;;;;5023311;28;20021;-71
2021/03/08 09:53:54;;;;;;;65.72;34.67;;;8.50;99.90;;;;;;5027201;28;20037;-73
2021/03/08 09:56:23;;;;;;;71.82;35.20;;;8.50;99.90;;;;;;5025097;28;20042;-71
2021/03/08 09:59:02;;;;;;;71.07;33.58;;;8.60;99.90;;;;;;5026982;28;20033;-72
2021/03/08 10:01:28;;;;;;;68.25;34.70;;;8.60;99.90;;;;;;5055343;28;20014;-73
2021/03/08 10:03:53;;;;;;;70.80;34.55;;;8.70;99.90;;;;;;5024591;28;20033;-73
2021/03/08 10:06:37;;;;;;;72.78;33.75;;;8.70;99.90;;;;;;5022634;28;20103;-74
2021/03/08 10:09:18;;;;;;;65.47;32.00;;;8.80;99.90;;;;;;5021644;28;20034;-73
2021/03/08 10:11:43;;;;;;;60.35;29.85;;;8.90;99.90;;;;;;5022224;28;20404;-75
2021/03/08 10:14:25;;;;;;;62.17;33.13;;;8.80;99.90;;;;;;5027736;28;20029;-74
2021/03/08 10:17:09;;;;;;;60.42;30.23;;;8.90;99.90;;;;;;5022905;28;20029;-75
2021/03/08 10:19:36;;;;;;;55.30;28.48;;;9.00;99.90;;;;;;5021583;28;20387;-76
2021/03/08 10:22:02;;;;;;;56.25;28.48;;;9.10;99.90;;;;;;5023858;28;20116;-76
2021/03/08 10:24:38;;;;;;;65.05;33.10;;;9.00;99.90;;;;;;5019091;28;20117;-75
2021/03/08 10:27:10;;;;;;;62.83;32.75;;;9.10;99.90;;;;;;5024492;28;20024;-73
2021/03/08 10:29:38;;;;;;;63.72;32.15;;;9.10;99.90;;;;;;5017424;28;20403;-76
2021/03/08 10:32:05;;;;;;;57.90;28.90;;;9.10;99.90;;;;;;5029334;28;20028;-77
2021/03/08 10:34:31;;;;;;;54.15;27.95;;;9.20;99.90;;;;;;5020591;28;20032;-76
2021/03/08 10:36:57;;;;;;;58.72;30.80;;;9.50;99.90;;;;;;5024354;28;20093;-75
2021/03/08 10:39:24;;;;;;;51.92;27.25;;;9.50;99.90;;;;;;5026508;28;20094;-76
2021/03/08 10:41:51;;;;;;;59.63;30.17;;;9.70;99.90;;;;;;5022808;28;20028;-77
2021/03/08 10:44:21;;;;;;;56.03;30.23;;;9.70;99.90;;;;;;5028743;28;20025;-75
2021/03/08 10:46:47;;;;;;;60.45;31.13;;;9.60;99.90;;;;;;5019135;28;20022;-73
2021/03/08 10:49:13;;;;;;;60.22;32.67;;;9.70;99.90;;;;;;5022117;28;20145;-72
2021/03/08 10:51:41;;;;;;;57.20;29.10;;;9.90;99.90;;;;;;5023017;28;20066;-75
2021/03/08 10:54:12;;;;;;;53.58;29.23;;;10.00;99.90;;;;;;5029698;28;20017;-75
2021/03/08 10:56:43;;;;;;;58.53;29.10;;;10.10;99.90;;;;;;5020774;28;20105;-75
2021/03/08 10:59:26;;;;;;;60.83;30.50;;;10.10;99.90;;;;;;5024862;28;20253;-72
2021/03/08 11:02:04;;;;;;;53.45;28.08;;;10.20;99.90;;;;;;5028016;28;20036;-74
2021/03/08 11:04:29;;;;;;;51.80;28.17;;;10.30;99.90;;;;;;5022881;28;20113;-74
2021/03/08 11:06:55;;;;;;;46.05;26.23;;;10.40;99.90;;;;;;5036600;28;20743;-74
2021/03/08 11:09:34;;;;;;;45.78;24.02;;;10.60;99.90;;;;;;5037474;28;20381;-72
2021/03/08 11:12:05;;;;;;;46.13;25.52;;;10.60;99.90;;;;;;5037781;28;20033;-75
2021/03/08 11:14:46;;;;;;;45.47;24.67;;;10.50;99.90;;;;;;5039866;28;20028;-75
2021/03/08 11:17:12;;;;;;;53.13;26.10;;;10.40;99.90;;;;;;5032627;28;20053;-72
2021/03/08 11:19:38;;;;;;;50.05;27.35;;;10.30;99.90;;;;;;5032440;28;20037;-74
2021/03/08 11:22:14;;;;;;;51.50;26.52;;;10.40;99.90;;;;;;5030094;28;20026;-72
2021/03/08 11:24:51;;;;;;;46.78;26.23;;;10.40;99.90;;;;;;5033949;28;20501;-73
2021/03/08 11:27:20;;;;;;;46.50;24.92;;;10.50;99.90;;;;;;5019626;28;20033;-73
2021/03/08 11:30:01;;;;;;;41.80;23.05;;;10.50;99.90;;;;;;5028513;28;20416;-73
2021/03/08 11:32:29;;;;;;;49.92;25.42;;;10.50;99.90;;;;;;5030117;28;20030;-73
2021/03/08 11:34:55;;;;;;;42.58;24.83;;;10.70;99.90;;;;;;5028713;28;20014;-74
2021/03/08 11:37:23;;;;;;;44.78;23.73;;;10.70;99.90;;;;;;5037193;28;20443;-72
2021/03/08 11:39:51;;;;;;;40.47;23.25;;;10.80;99.90;;;;;;5045985;28;20030;-71
2021/03/08 11:42:19;;;;;;;46.33;25.00;;;10.90;99.90;;;;;;5031744;28;20084;-72
2021/03/08 11:44:46;;;;;;;40.70;22.40;;;10.90;99.90;;;;;;5027548;28;20036;-72
2021/03/08 11:47:12;;;;;;;44.08;23.20;;;11.00;99.90;;;;;;5026360;28;20032;-72
2021/03/08 11:49:38;;;;;;;41.05;23.55;;;11.10;99.90;;;;;;5024716;28;20075;-72
2021/03/08 11:52:04;;;;;;;40.90;23.48;;;11.10;99.90;;;;;;5032329;28;20021;-72
2021/03/08 11:54:30;;;;;;;41.40;23.83;;;10.90;99.90;;;;;;5031512;28;20026;-72
2021/03/08 11:56:56;;;;;;;39.20;22.02;;;10.70;99.90;;;;;;5028999;28;20116;-72
2021/03/08 11:59:22;;;;;;;38.35;21.52;;;10.60;99.90;;;;;;5021420;28;20124;-71
2021/03/08 12:01:48;;;;;;;45.55;22.85;;;10.60;99.90;;;;;;5026131;28;20430;-72
2021/03/08 12:04:13;;;;;;;42.58;22.80;;;10.70;99.90;;;;;;5022273;28;20114;-72
2021/03/08 12:06:39;;;;;;;45.25;24.70;;;10.80;99.90;;;;;;5020991;28;20022;-72
2021/03/08 12:09:05;;;;;;;41.42;22.38;;;10.90;99.90;;;;;;5028548;28;20025;-72
2021/03/08 12:11:30;;;;;;;41.40;21.73;;;11.00;99.90;;;;;;5033232;28;20040;-72
2021/03/08 12:13:56;;;;;;;37.15;21.05;;;11.10;99.90;;;;;;5025908;28;20403;-72
2021/03/08 12:16:22;;;;;;;42.38;22.55;;;11.10;99.90;;;;;;5026591;28;20071;-73
2021/03/08 12:18:48;;;;;;;37.28;20.42;;;11.30;99.90;;;;;;5030880;28;20030;-72
2021/03/08 12:21:14;;;;;;;37.38;20.98;;;11.40;99.90;;;;;;5034354;28;20148;-72
2021/03/08 12:23:40;;;;;;;42.83;22.02;;;11.40;99.90;;;;;;5031443;28;20033;-73
2021/03/08 12:26:06;;;;;;;42.00;22.88;;;11.40;99.90;;;;;;5027354;28;20022;-72
2021/03/08 12:28:32;;;;;;;41.35;21.67;;;11.30;99.90;;;;;;5016719;28;20042;-73
2021/03/08 12:30:58;;;;;;;40.70;22.92;;;11.30;99.90;;;;;;5028063;28;20035;-73
2021/03/08 12:33:24;;;;;;;36.58;21.13;;;11.30;99.90;;;;;;5029968;28;20030;-73
2021/03/08 12:35:49;;;;;;;35.35;20.55;;;11.30;99.90;;;;;;5030594;28;20030;-73
2021/03/08 12:38:15;;;;;;;36.47;20.90;;;11.30;99.90;;;;;;5023869;28;20036;-74
2021/03/08 12:40:40;;;;;;;36.58;20.50;;;11.30;99.90;;;;;;5030861;28;20055;-75
2021/03/08 12:43:07;;;;;;;39.22;22.85;;;11.30;99.90;;;;;;5036486;28;20029;-75
2021/03/08 12:45:33;;;;;;;35.63;21.00;;;11.00;99.90;;;;;;5032519;28;20436;-75
2021/03/08 12:47:59;;;;;;;35.58;20.15;;;10.80;99.90;;;;;;5034571;28;20543;-75
2021/03/08 12:50:25;;;;;;;40.28;22.15;;;10.80;99.90;;;;;;5029945;28;20033;-74
2021/03/08 12:52:50;;;;;;;37.70;20.77;;;10.90;99.90;;;;;;5024271;28;20022;-75